KCNM

Cavern City Air Trml Airport

Carlsbad, New Mexico, USA
METAR KCNM 171353Z AUTO 24007KT 10SM CLR 04/01 A3026 RMK AO2 SLP234 T00440006
Observed Flight Rules
Dec-17 @ 13:53 UTC (41 minutes ago) Visual Flight Rules
Wind Visibility Clouds
240° at 7 knots 10 miles
  • Clear skies
Temperatures Readings
Current 4°C / 39°F
Dewpoint 1°C / 34°F
Humidity 81%
Altimeter 30.26" Hg
Pressure 1023.4 hPa
Elevation 985
METAR KCNM 171353Z AUTO 24007KT 10SM CLR 04/01 A3026 RMK AO2 SLP234 T00440006
Observed Flight Rules
Dec-17 @ 13:53 UTC
(41 minutes ago)
VFR
Wind Visibility
240° at 7 knots 10 miles
Clouds
  • Clear skies
Temperature Dewpoint
4°C / 39°F 1°C / 34°F
Humidity Altimeter Pressure
81% 30.26" Hg 1023.4 hPa